createdAt,value
2017-05-31T00:02:18.999Z,51.20
2017-05-31T00:04:47.820Z,52.40
2017-05-31T00:07:16.652Z,51.90
2017-05-31T00:09:45.463Z,51.90
2017-05-31T00:12:14.279Z,51.60
2017-05-31T00:14:43.094Z,51.60
2017-05-31T00:17:11.903Z,50.90
2017-05-31T00:19:40.726Z,50.30
2017-05-31T00:22:09.535Z,50.50
2017-05-31T00:24:38.368Z,50.40
2017-05-31T00:27:07.179Z,51.10
2017-05-31T00:29:35.987Z,50.90
2017-05-31T00:32:04.814Z,50.60
2017-05-31T00:34:33.630Z,50.60
2017-05-31T00:37:02.443Z,50.70
2017-05-31T00:39:31.255Z,50.20
2017-05-31T00:42:00.082Z,50.40
2017-05-31T00:44:29.035Z,50.40
2017-05-31T00:46:57.824Z,50.20
2017-05-31T00:49:26.632Z,50.60
2017-05-31T00:51:55.448Z,50.20
2017-05-31T00:54:24.268Z,50.30
2017-05-31T00:56:53.071Z,50.60
2017-05-31T00:59:21.892Z,50.60
2017-05-31T01:01:50.721Z,50.90
2017-05-31T01:04:19.539Z,50.90
2017-05-31T01:06:48.352Z,51.10
2017-05-31T01:09:17.168Z,51.40
2017-05-31T01:11:46.007Z,51.70
2017-05-31T01:14:14.819Z,52.40
2017-05-31T01:16:43.626Z,52.30
2017-05-31T01:19:12.479Z,52.50
2017-05-31T01:21:41.280Z,52.10
2017-05-31T01:24:10.092Z,51.80
2017-05-31T01:26:38.923Z,52.20
2017-05-31T01:29:07.728Z,53.10
2017-05-31T01:31:36.559Z,52.60
2017-05-31T01:34:05.391Z,52.60
2017-05-31T01:36:34.209Z,53.40
2017-05-31T01:39:03.026Z,53.80
2017-05-31T01:41:31.844Z,53.90
2017-05-31T01:44:00.655Z,54.20
2017-05-31T01:46:29.487Z,54.60
2017-05-31T01:48:58.428Z,54.30
2017-05-31T01:51:27.214Z,54.40
2017-05-31T01:53:56.079Z,54.30
2017-05-31T01:56:24.859Z,54.50
2017-05-31T01:58:53.675Z,54.30
2017-05-31T02:01:22.479Z,54.60
2017-05-31T02:03:51.311Z,54.80
2017-05-31T02:06:20.126Z,54.70
2017-05-31T02:08:48.967Z,54.90
2017-05-31T02:11:17.778Z,54.40
2017-05-31T02:13:46.608Z,54.30
2017-05-31T02:16:15.446Z,54.80
2017-05-31T02:18:44.283Z,54.60
2017-05-31T02:21:13.088Z,54.70
2017-05-31T02:23:41.923Z,54.60
2017-05-31T02:26:10.739Z,55.00
2017-05-31T02:28:39.551Z,54.80
2017-05-31T02:31:08.387Z,55.00
2017-05-31T02:33:37.200Z,55.30
2017-05-31T02:36:06.016Z,55.40
2017-05-31T02:38:34.859Z,55.60
2017-05-31T02:41:03.666Z,56.20
2017-05-31T02:43:32.491Z,56.20
2017-05-31T02:46:01.291Z,56.50
2017-05-31T02:48:30.116Z,57.10
2017-05-31T02:50:58.939Z,56.80
2017-05-31T02:53:27.771Z,56.20
2017-05-31T02:55:56.598Z,56.30
2017-05-31T02:58:25.411Z,56.30
2017-05-31T03:00:54.224Z,56.60
2017-05-31T03:03:23.065Z,56.60
2017-05-31T03:05:51.872Z,56.10
2017-05-31T03:08:20.685Z,56.20
2017-05-31T03:10:49.521Z,55.90
2017-05-31T03:13:18.345Z,55.80
2017-05-31T03:15:47.162Z,55.60
2017-05-31T03:18:16.023Z,55.70
2017-05-31T03:20:44.809Z,55.60
2017-05-31T03:23:13.652Z,55.70
2017-05-31T03:25:42.469Z,56.10
2017-05-31T03:28:11.296Z,56.70
2017-05-31T03:30:40.131Z,57.10
2017-05-31T03:33:08.940Z,57.50
2017-05-31T03:35:38.695Z,58.20
2017-05-31T03:38:07.527Z,58.10
2017-05-31T03:40:36.379Z,57.80
2017-05-31T03:43:05.227Z,57.20
2017-05-31T03:45:34.032Z,57.00
2017-05-31T03:48:02.846Z,57.70
2017-05-31T03:50:31.684Z,56.80
2017-05-31T03:53:00.511Z,57.30
2017-05-31T03:55:29.331Z,57.20
2017-05-31T03:57:58.175Z,57.00
2017-05-31T04:00:26.990Z,56.90
2017-05-31T04:02:55.816Z,56.80
2017-05-31T04:05:24.647Z,56.80
2017-05-31T04:07:53.478Z,56.60
2017-05-31T04:10:22.296Z,56.70
2017-05-31T04:12:51.111Z,57.20
2017-05-31T04:15:19.948Z,56.60
2017-05-31T04:17:48.767Z,56.80
2017-05-31T04:20:17.586Z,57.80
2017-05-31T04:22:46.437Z,58.50
2017-05-31T04:25:15.256Z,58.40
2017-05-31T04:27:44.085Z,58.50
2017-05-31T04:30:12.911Z,58.70
2017-05-31T04:32:41.731Z,59.00
2017-05-31T04:35:10.595Z,58.20
2017-05-31T04:37:39.404Z,58.90
2017-05-31T04:40:08.247Z,59.10
2017-05-31T04:42:37.099Z,59.30
2017-05-31T04:45:06.022Z,59.20
2017-05-31T04:47:34.835Z,58.70
2017-05-31T04:50:03.844Z,58.90
2017-05-31T04:52:32.675Z,58.40
2017-05-31T04:55:01.574Z,58.30
2017-05-31T04:57:30.358Z,58.00
2017-05-31T04:59:59.169Z,58.60
2017-05-31T05:02:28.001Z,58.40
2017-05-31T05:04:56.819Z,58.50
2017-05-31T05:07:25.675Z,58.20
2017-05-31T05:09:54.487Z,58.10
2017-05-31T05:12:23.309Z,58.40
2017-05-31T05:14:52.148Z,57.80
2017-05-31T05:17:20.983Z,58.10
2017-05-31T05:19:49.821Z,57.80
2017-05-31T05:22:18.630Z,58.30
2017-05-31T05:24:47.443Z,58.10
2017-05-31T05:27:16.314Z,57.90
2017-05-31T05:29:45.122Z,57.50
2017-05-31T05:32:13.942Z,57.40
2017-05-31T05:34:42.770Z,57.40
2017-05-31T05:37:11.596Z,56.60
2017-05-31T05:39:40.440Z,56.80
2017-05-31T05:42:09.278Z,56.50
2017-05-31T05:44:38.160Z,56.70
2017-05-31T05:47:06.987Z,57.60
2017-05-31T05:49:35.825Z,57.80
2017-05-31T05:52:04.652Z,58.20
2017-05-31T05:54:33.474Z,58.70
2017-05-31T05:57:02.302Z,59.20
2017-05-31T05:59:31.122Z,60.10
2017-05-31T06:01:59.970Z,60.40
2017-05-31T06:04:28.781Z,59.70
2017-05-31T06:06:57.622Z,60.50
2017-05-31T06:12:01.672Z,60.80
2017-05-31T06:14:30.556Z,60.10
2017-05-31T06:16:59.347Z,59.30
2017-05-31T06:19:28.185Z,59.20
2017-05-31T06:21:56.994Z,59.60
2017-05-31T06:24:25.860Z,59.40
2017-05-31T06:26:54.676Z,59.20
2017-05-31T06:29:23.538Z,59.10
2017-05-31T06:31:52.363Z,59.00
2017-05-31T06:34:21.180Z,58.80
2017-05-31T06:36:50.030Z,59.30
2017-05-31T06:39:19.288Z,59.20
2017-05-31T06:41:48.114Z,58.40
2017-05-31T06:44:16.945Z,58.10
2017-05-31T06:46:45.778Z,57.40
2017-05-31T06:49:14.591Z,58.00
2017-05-31T06:51:43.434Z,57.60
2017-05-31T06:54:12.290Z,57.50
2017-05-31T06:56:41.096Z,57.20
2017-05-31T06:59:09.943Z,56.70
2017-05-31T07:01:39.436Z,56.00
2017-05-31T07:04:08.259Z,55.90
2017-05-31T07:06:37.079Z,55.40
2017-05-31T07:09:05.925Z,55.20
2017-05-31T07:11:34.732Z,54.20
2017-05-31T07:14:03.575Z,54.90
2017-05-31T07:16:32.383Z,55.60
2017-05-31T07:19:01.219Z,55.30
2017-05-31T07:21:30.048Z,55.00
2017-05-31T07:23:58.851Z,54.00
2017-05-31T07:26:27.691Z,53.70
2017-05-31T07:28:56.513Z,54.70
2017-05-31T07:31:25.312Z,54.60
2017-05-31T07:33:55.008Z,54.40
2017-05-31T07:36:23.836Z,55.50
2017-05-31T07:38:52.655Z,56.00
2017-05-31T07:41:21.577Z,56.30
2017-05-31T07:43:50.379Z,55.70
2017-05-31T07:46:19.186Z,55.00
2017-05-31T07:48:48.015Z,55.90
2017-05-31T07:51:16.839Z,55.40
2017-05-31T07:53:45.658Z,55.40
2017-05-31T07:56:14.470Z,54.50
2017-05-31T07:58:43.323Z,53.90
2017-05-31T08:01:12.159Z,53.30
2017-05-31T08:03:40.998Z,52.60
2017-05-31T08:06:09.835Z,52.50
2017-05-31T08:08:38.670Z,52.30
2017-05-31T08:11:07.478Z,51.40
2017-05-31T08:13:36.331Z,50.60
2017-05-31T08:16:06.124Z,50.60
2017-05-31T08:18:34.937Z,51.20
2017-05-31T08:21:03.782Z,52.30
2017-05-31T08:23:32.600Z,51.40
2017-05-31T08:26:01.467Z,51.60
2017-05-31T08:28:30.255Z,50.80
2017-05-31T08:30:59.116Z,51.10
2017-05-31T08:33:27.934Z,51.10
2017-05-31T08:35:56.772Z,51.10
2017-05-31T08:38:25.637Z,50.70
2017-05-31T08:40:54.443Z,49.90
2017-05-31T08:43:23.292Z,49.50
2017-05-31T08:45:52.617Z,50.40
2017-05-31T08:48:21.441Z,49.00
2017-05-31T08:50:50.270Z,48.20
2017-05-31T08:53:19.087Z,47.70
2017-05-31T08:55:47.903Z,48.10
2017-05-31T08:58:16.755Z,47.40
2017-05-31T09:00:45.568Z,48.20
2017-05-31T09:03:14.400Z,47.80
2017-05-31T09:05:43.223Z,47.00
2017-05-31T09:08:12.053Z,46.10
2017-05-31T09:10:40.883Z,46.50
2017-05-31T09:13:09.686Z,45.40
2017-05-31T09:15:38.526Z,43.60
2017-05-31T09:18:07.349Z,40.60
2017-05-31T09:20:36.147Z,38.80
2017-05-31T09:23:04.968Z,37.60
2017-05-31T09:25:33.794Z,37.50
2017-05-31T09:28:02.604Z,33.90
2017-05-31T09:30:31.410Z,30.90
2017-05-31T09:33:00.239Z,33.10
2017-05-31T09:35:29.047Z,35.00
2017-05-31T09:37:57.852Z,35.20
2017-05-31T09:40:26.682Z,36.40
2017-05-31T09:42:55.485Z,37.20
2017-05-31T09:45:24.300Z,34.20
2017-05-31T09:47:53.128Z,32.70
2017-05-31T09:50:21.946Z,30.80
2017-05-31T09:52:50.759Z,30.60
2017-05-31T09:55:19.586Z,30.00
2017-05-31T09:57:48.428Z,29.00
2017-05-31T10:00:17.247Z,26.70
2017-05-31T10:02:46.055Z,25.70
2017-05-31T10:05:14.903Z,27.40
2017-05-31T10:07:43.703Z,27.80
2017-05-31T10:10:12.553Z,27.30
2017-05-31T10:12:41.354Z,26.60
2017-05-31T10:15:10.182Z,26.40
2017-05-31T10:17:40.712Z,26.40
2017-05-31T10:20:09.548Z,26.40
2017-05-31T10:22:38.351Z,28.00
2017-05-31T10:25:07.163Z,30.00
2017-05-31T10:27:36.020Z,31.80
2017-05-31T10:30:04.857Z,34.20
2017-05-31T10:32:33.647Z,35.10
2017-05-31T10:35:02.482Z,34.50
2017-05-31T10:37:31.301Z,33.90
2017-05-31T10:40:00.132Z,34.60
2017-05-31T10:42:28.970Z,36.00
2017-05-31T10:44:57.791Z,37.50
2017-05-31T10:47:26.608Z,36.80
2017-05-31T10:49:55.434Z,35.10
2017-05-31T10:52:24.283Z,34.70
2017-05-31T10:54:53.094Z,35.10
2017-05-31T10:57:21.930Z,35.60
2017-05-31T10:59:50.738Z,37.00
2017-05-31T11:02:19.623Z,35.60
2017-05-31T11:04:48.432Z,30.80
2017-05-31T11:07:17.248Z,28.60
2017-05-31T11:09:46.083Z,28.10
2017-05-31T11:12:14.893Z,27.90
2017-05-31T11:14:44.623Z,28.30
2017-05-31T11:17:13.423Z,29.90
2017-05-31T11:19:42.230Z,29.30
2017-05-31T11:22:11.291Z,28.90
2017-05-31T11:24:40.168Z,27.80
2017-05-31T11:27:09.001Z,25.90
2017-05-31T11:29:37.791Z,24.20
2017-05-31T11:32:06.647Z,24.60
2017-05-31T11:34:35.454Z,25.20
2017-05-31T11:37:04.271Z,25.00
2017-05-31T11:39:33.092Z,24.80
2017-05-31T11:42:01.922Z,24.40
2017-05-31T11:44:30.724Z,24.90
2017-05-31T11:46:59.565Z,25.80
2017-05-31T11:49:28.380Z,26.90
2017-05-31T11:51:57.217Z,29.00
2017-05-31T11:54:26.039Z,31.40
2017-05-31T11:56:54.868Z,30.00
2017-05-31T11:59:23.681Z,28.50
2017-05-31T12:01:52.494Z,27.30
2017-05-31T12:04:22.074Z,25.10
2017-05-31T12:06:50.896Z,24.20
2017-05-31T12:09:19.719Z,23.30
2017-05-31T12:11:48.555Z,22.50
2017-05-31T12:14:17.387Z,21.10
2017-05-31T12:16:46.191Z,21.70
2017-05-31T12:19:15.042Z,22.50
2017-05-31T12:21:43.855Z,23.00
2017-05-31T12:24:12.683Z,24.90
2017-05-31T12:26:42.152Z,26.90
2017-05-31T12:29:10.975Z,28.40
2017-05-31T12:31:39.777Z,30.30
2017-05-31T12:34:08.587Z,29.90
2017-05-31T12:36:37.403Z,31.10
2017-05-31T12:39:06.215Z,32.90
2017-05-31T12:41:35.289Z,33.80
2017-05-31T12:44:04.063Z,34.50
2017-05-31T12:46:32.889Z,35.20
2017-05-31T12:49:01.699Z,35.40
2017-05-31T12:51:30.513Z,37.40
2017-05-31T12:53:59.363Z,36.10
2017-05-31T12:56:28.196Z,36.20
2017-05-31T12:58:56.990Z,36.70
2017-05-31T13:01:25.795Z,35.40
2017-05-31T13:03:54.607Z,33.80
2017-05-31T13:06:23.441Z,34.80
2017-05-31T13:08:52.279Z,33.80
2017-05-31T13:11:21.075Z,33.50
2017-05-31T13:13:49.906Z,32.20
2017-05-31T13:16:18.724Z,34.80
2017-05-31T13:18:47.538Z,34.30
2017-05-31T13:21:16.364Z,33.80
2017-05-31T13:23:45.198Z,35.00
2017-05-31T13:26:14.036Z,34.80
2017-05-31T13:28:42.840Z,34.00
2017-05-31T13:31:11.757Z,33.30
2017-05-31T13:33:40.568Z,33.00
2017-05-31T13:36:09.384Z,33.90
2017-05-31T13:38:38.191Z,33.20
2017-05-31T13:41:07.018Z,34.50
2017-05-31T13:43:35.851Z,34.00
2017-05-31T13:46:04.675Z,36.20
2017-05-31T13:48:33.507Z,37.30
2017-05-31T13:51:02.326Z,37.00
2017-05-31T13:53:31.147Z,37.90
2017-05-31T13:55:59.995Z,35.10
2017-05-31T13:58:28.799Z,35.60
2017-05-31T14:00:57.628Z,37.20
2017-05-31T14:03:26.447Z,37.30
2017-05-31T14:05:55.274Z,36.60
2017-05-31T14:08:24.095Z,35.80
2017-05-31T14:10:52.916Z,35.90
2017-05-31T14:13:21.747Z,36.60
2017-05-31T14:15:50.567Z,37.80
2017-05-31T14:18:19.400Z,37.60
2017-05-31T14:20:48.451Z,36.30
2017-05-31T14:23:17.267Z,36.10
2017-05-31T14:25:46.083Z,36.90
2017-05-31T14:28:14.896Z,36.60
2017-05-31T14:30:44.239Z,35.50
2017-05-31T14:33:13.063Z,34.60
2017-05-31T14:35:41.888Z,35.20
2017-05-31T14:38:10.711Z,35.30
2017-05-31T14:40:39.541Z,35.50
2017-05-31T14:43:08.372Z,36.00
2017-05-31T14:45:37.175Z,37.30
2017-05-31T14:48:06.011Z,38.40
2017-05-31T14:50:34.848Z,39.70
2017-05-31T14:53:03.660Z,39.90
2017-05-31T14:55:32.463Z,40.30
2017-05-31T14:58:01.300Z,40.80
2017-05-31T15:00:30.089Z,40.50
2017-05-31T15:02:58.900Z,40.20
2017-05-31T15:05:27.742Z,40.50
2017-05-31T15:07:56.537Z,41.10
2017-05-31T15:10:25.363Z,41.20
2017-05-31T15:12:54.166Z,40.70
2017-05-31T15:15:22.980Z,40.80
2017-05-31T15:17:51.805Z,40.80
2017-05-31T15:20:20.604Z,40.50
2017-05-31T15:22:49.465Z,39.60
2017-05-31T15:25:18.285Z,39.60
2017-05-31T15:27:47.088Z,39.80
2017-05-31T15:30:15.921Z,39.60
2017-05-31T15:32:44.749Z,39.50
2017-05-31T15:35:13.568Z,40.00
2017-05-31T15:37:42.390Z,39.20
2017-05-31T15:40:11.265Z,39.40
2017-05-31T15:42:40.155Z,39.70
2017-05-31T15:45:08.996Z,39.60
2017-05-31T15:47:37.818Z,39.70
2017-05-31T15:50:06.636Z,39.40
2017-05-31T15:52:35.459Z,39.90
2017-05-31T15:55:04.272Z,39.90
2017-05-31T15:57:33.131Z,40.00
2017-05-31T16:00:01.963Z,39.60
2017-05-31T16:02:30.771Z,38.90
2017-05-31T16:04:59.600Z,39.10
2017-05-31T16:07:28.415Z,38.50
2017-05-31T16:09:57.244Z,38.20
2017-05-31T16:12:26.072Z,37.90
2017-05-31T16:14:54.883Z,37.60
2017-05-31T16:17:23.707Z,37.90
2017-05-31T16:19:52.522Z,37.90
2017-05-31T16:22:21.363Z,38.80
2017-05-31T16:24:50.186Z,38.40
2017-05-31T16:27:19.019Z,38.30
2017-05-31T16:29:47.835Z,38.40
2017-05-31T16:32:16.677Z,37.40
2017-05-31T16:34:45.485Z,37.40
2017-05-31T16:37:14.341Z,38.10
2017-05-31T16:39:43.246Z,38.60
2017-05-31T16:42:12.104Z,39.10
2017-05-31T16:44:40.945Z,38.80
2017-05-31T16:47:09.763Z,38.50
2017-05-31T16:49:38.585Z,39.20
2017-05-31T16:52:07.416Z,38.60
2017-05-31T16:54:36.235Z,39.10
2017-05-31T16:57:05.044Z,39.20
2017-05-31T16:59:33.879Z,38.70
2017-05-31T17:02:02.714Z,39.10
2017-05-31T17:04:31.539Z,39.20
2017-05-31T17:07:00.375Z,39.10
2017-05-31T17:09:29.193Z,39.20
2017-05-31T17:11:57.999Z,39.20
2017-05-31T17:14:26.815Z,39.60
2017-05-31T17:16:55.639Z,39.60
2017-05-31T17:19:24.451Z,40.40
2017-05-31T17:21:53.295Z,39.40
2017-05-31T17:24:22.110Z,39.10
2017-05-31T17:26:50.936Z,38.90
2017-05-31T17:29:19.831Z,39.40
2017-05-31T17:31:48.703Z,39.40
2017-05-31T17:34:17.544Z,39.30
2017-05-31T17:36:46.348Z,39.60
2017-05-31T17:39:15.164Z,39.80
2017-05-31T17:41:44.001Z,39.90
2017-05-31T17:44:12.800Z,40.20
2017-05-31T17:46:41.681Z,40.50
2017-05-31T17:49:10.531Z,40.50
2017-05-31T17:51:39.367Z,40.90
2017-05-31T17:54:08.189Z,41.00
2017-05-31T17:56:37.011Z,41.10
2017-05-31T17:59:06.596Z,41.40
2017-05-31T18:01:35.544Z,41.80
2017-05-31T18:04:04.373Z,41.70
2017-05-31T18:06:33.203Z,42.10
2017-05-31T18:09:02.012Z,42.60
2017-05-31T18:11:30.859Z,42.10
2017-05-31T18:13:59.686Z,42.10
2017-05-31T18:16:28.493Z,41.80
2017-05-31T18:18:57.355Z,41.80
2017-05-31T18:21:26.147Z,41.90
2017-05-31T18:23:54.988Z,42.00
2017-05-31T18:26:23.837Z,41.90
2017-05-31T18:28:52.631Z,41.60
2017-05-31T18:31:22.438Z,41.60
2017-05-31T18:33:51.989Z,41.40
2017-05-31T18:36:20.820Z,41.70
2017-05-31T18:38:49.647Z,41.50
2017-05-31T18:41:18.490Z,41.30
2017-05-31T18:43:47.297Z,41.50
2017-05-31T18:46:16.127Z,41.70
2017-05-31T18:48:45.066Z,42.00
2017-05-31T18:51:13.872Z,42.50
2017-05-31T18:53:42.691Z,42.50
2017-05-31T18:56:11.628Z,43.30
2017-05-31T18:58:40.452Z,42.80
2017-05-31T19:01:09.283Z,43.10
2017-05-31T19:03:38.115Z,43.00
2017-05-31T19:06:06.966Z,43.00
2017-05-31T19:08:35.786Z,43.30
2017-05-31T19:11:04.606Z,43.50
2017-05-31T19:13:33.411Z,43.40
2017-05-31T19:16:02.247Z,43.60
2017-05-31T19:18:31.087Z,43.80
2017-05-31T19:20:59.897Z,43.90
2017-05-31T19:23:30.602Z,44.10
2017-05-31T19:26:00.121Z,44.00
2017-05-31T19:28:29.536Z,44.20
2017-05-31T19:30:58.359Z,44.30
2017-05-31T19:33:27.162Z,44.50
2017-05-31T19:35:55.978Z,44.50
2017-05-31T19:38:24.812Z,44.70
2017-05-31T19:40:53.639Z,44.30
2017-05-31T19:43:22.480Z,44.30
2017-05-31T19:45:51.320Z,44.30
2017-05-31T19:48:20.127Z,44.30
2017-05-31T19:50:48.960Z,44.60
2017-05-31T19:53:17.892Z,44.20
2017-05-31T20:08:46.771Z,46.70
2017-05-31T20:11:15.580Z,46.70
2017-05-31T20:13:44.404Z,46.60
2017-05-31T20:16:13.219Z,46.40
2017-05-31T20:18:42.045Z,46.40
2017-05-31T20:21:10.866Z,46.60
2017-05-31T20:23:39.723Z,46.70
2017-05-31T20:26:08.526Z,47.10
2017-05-31T20:28:38.166Z,47.50
2017-05-31T20:31:06.987Z,47.40
2017-05-31T20:33:35.815Z,47.50
2017-05-31T20:36:04.641Z,47.90
2017-05-31T20:38:33.439Z,48.00
2017-05-31T20:41:02.279Z,48.10
2017-05-31T20:43:31.113Z,48.10
2017-05-31T20:45:59.933Z,48.10
2017-05-31T20:48:28.743Z,48.40
2017-05-31T20:50:57.557Z,48.60
2017-05-31T20:53:26.401Z,48.70
2017-05-31T20:55:55.232Z,49.10
2017-05-31T20:58:24.043Z,48.80
2017-05-31T21:00:52.887Z,49.00
2017-05-31T21:03:21.727Z,48.60
2017-05-31T21:05:50.536Z,48.60
2017-05-31T21:08:19.352Z,48.70
2017-05-31T21:10:48.187Z,48.80
2017-05-31T21:13:17.009Z,48.60
2017-05-31T21:15:45.838Z,48.30
2017-05-31T21:18:14.663Z,48.10
2017-05-31T21:20:43.488Z,47.30
2017-05-31T21:23:12.320Z,47.10
2017-05-31T21:25:41.133Z,46.50
2017-05-31T21:28:09.970Z,46.20
2017-05-31T21:30:38.781Z,46.40
2017-05-31T21:33:07.607Z,46.60
2017-05-31T21:35:36.443Z,46.40
2017-05-31T21:38:05.265Z,46.10
2017-05-31T21:40:34.075Z,46.10
2017-05-31T21:43:02.903Z,46.30
2017-05-31T21:45:31.718Z,46.40
2017-05-31T21:48:00.522Z,46.50
2017-05-31T21:50:29.373Z,46.40
2017-05-31T21:52:58.184Z,46.40
2017-05-31T21:55:26.995Z,46.20
2017-05-31T21:57:55.803Z,46.50
2017-05-31T22:00:24.664Z,46.40
2017-05-31T22:02:53.473Z,47.10
2017-05-31T22:05:22.279Z,46.50
2017-05-31T22:07:51.111Z,46.70
2017-05-31T22:10:19.936Z,46.80
2017-05-31T22:12:48.746Z,46.90
2017-05-31T22:15:18.495Z,46.90
2017-05-31T22:17:47.319Z,47.00
2017-05-31T22:20:16.141Z,47.10
2017-05-31T22:22:44.957Z,47.20
2017-05-31T22:25:13.779Z,47.00
2017-05-31T22:27:42.607Z,46.90
2017-05-31T22:30:11.448Z,47.20
2017-05-31T22:32:40.235Z,47.40
2017-05-31T22:35:09.075Z,47.80
2017-05-31T22:37:37.889Z,47.70
2017-05-31T22:40:06.705Z,47.30
2017-05-31T22:42:35.550Z,46.90
2017-05-31T22:45:04.375Z,47.00
2017-05-31T22:47:33.215Z,46.80
2017-05-31T22:50:02.036Z,46.70
2017-05-31T22:52:30.851Z,46.70
2017-05-31T22:54:59.663Z,46.30
2017-05-31T22:57:28.474Z,46.40
2017-05-31T22:59:57.524Z,46.40
2017-05-31T23:02:26.358Z,46.70
2017-05-31T23:04:55.151Z,47.00
2017-05-31T23:07:23.972Z,48.30
2017-05-31T23:09:52.787Z,48.70
2017-05-31T23:12:21.598Z,48.60
2017-05-31T23:14:50.433Z,48.50
2017-05-31T23:17:19.248Z,48.60
2017-05-31T23:19:48.051Z,48.90
2017-05-31T23:22:16.873Z,49.00
2017-05-31T23:24:45.675Z,49.00
2017-05-31T23:27:14.522Z,49.00
2017-05-31T23:29:43.331Z,49.10
2017-05-31T23:32:12.159Z,49.50
2017-05-31T23:34:41.027Z,48.80
2017-05-31T23:37:09.838Z,48.50
2017-05-31T23:39:38.651Z,48.40
2017-05-31T23:42:07.509Z,48.30
2017-05-31T23:44:36.319Z,49.00
2017-05-31T23:47:05.123Z,49.10
2017-05-31T23:49:33.953Z,49.40
2017-05-31T23:52:02.763Z,49.40
2017-05-31T23:54:31.567Z,49.40
2017-05-31T23:57:00.379Z,49.10
2017-05-31T23:59:29.200Z,49.20
